HKMOFZAA

Guest
Details From HKMO - Mombasa Moi Intl
To FZAA - Ndjili Intl
Flight Number -
Tags Generated
Created
Modified
Stats Distance 1,448 nm / 2,682 km
Max Altitude 0 ft / 0 m
Waypoints 3
Social Downloads 0
Likes 0
Share VATSIM

Download

Looking for another format? Having issues loading an existing format? Contact us
Advertisement - Login to hide

Notes

Generated

Route

HKMO OK FZAA

ID Type Via Altitude Latitude Longitude Leg Dist Tot Dist Heading (true) Name
O HKMO APT - 0 ft / 0 m -4.02983˚ 39.59137˚ - 0 nm - -
OK NDB - 0 ft / 0 m -4.34229˚ 15.51623˚ 1442 nm 1442 nm 268° / 270° NDJILI NDB
O FZAA APT - 0 ft / 0 m -4.39717˚ 15.42672˚ 6 nm 1448 nm 238° / 238° -

Altitude Profile

Advertisement - Login to hide

Weather


0- 5 10 15 20 25 30 35+ Temperature / ° C

Clouds and Precipitation
Forecast for 2018-05-21 06:00 UTC. Updated 3 hours ago

Ground ~20,000 ft ~40,000 ft Winds

HKMO

Details ICAO HKMO (MBA)
Name MOMBASA MOI INTL
Region Kenya
Timezone Africa/Nairobi (UTC+3.0)
Stats Elevation 200 ft / 61 m (AMSL)
Location -4.030744° 39.596732°
Runways 2
Magnetic Variation 0.933° W

METAR

Not found

TAF

TAF HKMO 210500Z 2106/2212 22010KT 9999 SCT019 BECMG 2109/2112 18010KT SCT026 BECMG 2118/2121 21005KT FEW022 TEMPO 2200/2206 -SHRA FEW018 BKN080 BECMG 2209/2212 18010KT SCT026 BKN080

Decode

Departure Runways

ID Width Length Bearing (true) Bearing (mag) Surface Threshold Offset Overrun Length
03 151 ft / 46 m 11,040 ft / 3,365 m 29.14° 30.07° Asphalt 2,503 ft / 763 m 197 ft / 60 m
15 118 ft / 36 m 4,492 ft / 1,369 m 150.47° 151.40° Asphalt 0 ft / 0 m 190 ft / 58 m
21 151 ft / 46 m 11,040 ft / 3,365 m 209.14° 210.07° Asphalt 0 ft / 0 m 197 ft / 60 m
33 118 ft / 36 m 4,492 ft / 1,369 m 330.47° 331.40° Asphalt 0 ft / 0 m 250 ft / 76 m

FZAA

Details ICAO FZAA (FIH)
Name NDJILI INTL
Region Democratic Republic of the Congo
Timezone Africa/Kinshasa (UTC+1.0)
Stats Elevation 1,027 ft / 313 m (AMSL)
Location -4.385750° 15.444570°
Runways 1
Magnetic Variation 1.269° W

METAR

FZAA 210700Z 18006KT 8000 SCT014 BKN100 23/22 Q1013 NOSIG

Decode

TAF

TAF TAF FZAA 210500Z 2106/2212 26006KT 8000 SCT014 PROB30 TEMPO 2106/2110 /////KT //// BR FM211100 32012KT 9999 FEW023 FEW030CB PROB30 TEMPO 2116/2120 TS BECMG 2121/2123 00000KT FEW018

Decode

Destination Runways

ID Width Length Bearing (true) Bearing (mag) Surface Threshold Offset Overrun Length
06 197 ft / 60 m 15,430 ft / 4,703 m 57.32° 58.59° Concrete 0 ft / 0 m 0 ft / 0 m
24 197 ft / 60 m 15,430 ft / 4,703 m 237.32° 238.59° Concrete 0 ft / 0 m 220 ft / 67 m

Approach Navaids

Runway Type Ident Frequency Range Bearing (true) Bearing (mag) Slope Elevation
24 Localiser KSA 110.30 MHz 18 nm / 33 km 235.17° 236.44° - 1,089 ft / 332 m (AMSL)
24 Glidescope KSA 110.30 MHz 10 nm / 19 km 237.32° 238.59° 2.80° 1,085 ft / 331 m (AMSL)